Time;durP1;ratioP1;P1;durP2;ratioP2;P2;SDS_P1;SDS_P2;PMS_P1;PMS_P2;Temp;Humidity;BMP_temperature;BMP_pressure;BME280_temperature;BME280_humidity;BME280_pressure;Samples;Min_cycle;Max_cycle;Signal;HPM_P1;HPM_P2
2022/04/02 00:00:46;;;;;;;1.15;0.52;;;5.60;99.90;;;;;;5046984;28;20099;-76
2022/04/02 00:03:12;;;;;;;1.25;0.82;;;5.60;99.90;;;;;;5047531;28;20044;-75
2022/04/02 00:05:37;;;;;;;3.20;0.65;;;5.60;99.90;;;;;;5047774;28;20048;-75
2022/04/02 00:08:04;;;;;;;0.95;0.35;;;5.60;99.90;;;;;;5047431;28;20051;-76
2022/04/02 00:10:29;;;;;;;1.75;0.50;;;5.50;99.90;;;;;;5036969;28;20384;-77
2022/04/02 00:12:56;;;;;;;2.05;0.77;;;5.40;99.90;;;;;;5036874;28;20029;-76
2022/04/02 00:15:22;;;;;;;1.60;0.70;;;5.50;99.90;;;;;;5039792;28;20053;-75
2022/04/02 00:17:48;;;;;;;1.20;0.57;;;5.30;99.90;;;;;;5045437;28;20044;-76
2022/04/02 00:20:14;;;;;;;1.17;0.50;;;5.20;99.90;;;;;;5035895;28;20088;-75
2022/04/02 00:23:35;;;;;;;2.05;0.47;;;5.30;99.90;;;;;;5039743;28;20033;-75
2022/04/02 00:25:26;;;;;;;1.20;0.60;;;5.30;99.90;;;;;;5045210;28;20950;-75
2022/04/02 00:27:51;;;;;;;1.55;0.65;;;5.40;99.90;;;;;;5046908;28;20134;-77
2022/04/02 00:30:17;;;;;;;1.35;0.50;;;5.40;99.90;;;;;;5036370;28;20048;-75
2022/04/02 00:32:43;;;;;;;1.05;0.38;;;5.40;99.90;;;;;;5039127;28;20041;-75
2022/04/02 00:35:09;;;;;;;2.35;0.80;;;5.40;99.90;;;;;;5044927;28;20605;-75
2022/04/02 00:37:34;;;;;;;0.77;0.57;;;5.50;99.90;;;;;;5046937;28;20532;-76
2022/04/02 00:40:00;;;;;;;1.77;0.93;;;5.60;99.90;;;;;;5045127;28;20033;-75
2022/04/02 00:42:26;;;;;;;1.17;0.50;;;5.60;99.90;;;;;;5037024;28;20073;-76
2022/04/02 00:44:52;;;;;;;1.55;0.60;;;5.60;99.90;;;;;;5029899;28;20032;-77
2022/04/02 00:47:20;;;;;;;1.75;0.68;;;5.60;99.90;;;;;;5031568;28;20034;-75
2022/04/02 00:49:46;;;;;;;2.30;0.80;;;5.40;99.90;;;;;;5037340;28;20025;-75
2022/04/02 00:52:13;;;;;;;0.98;0.45;;;5.30;99.90;;;;;;5043945;28;20030;-75
2022/04/02 00:54:40;;;;;;;0.57;0.30;;;5.20;99.90;;;;;;5035017;28;20025;-75
2022/04/02 00:57:06;;;;;;;1.00;0.40;;;5.40;99.90;;;;;;5050589;28;20025;-75
2022/04/02 00:59:32;;;;;;;1.55;0.63;;;5.40;99.90;;;;;;5049104;28;20029;-75
2022/04/02 01:01:58;;;;;;;1.58;0.60;;;5.50;99.90;;;;;;5044967;28;20048;-74
2022/04/02 01:04:23;;;;;;;0.77;0.50;;;5.60;99.90;;;;;;5051597;28;20029;-74
2022/04/02 01:06:51;;;;;;;0.45;0.20;;;5.60;99.90;;;;;;5049546;28;20469;-75
2022/04/02 01:09:17;;;;;;;0.95;0.40;;;5.60;99.90;;;;;;5048767;28;20033;-75
2022/04/02 01:11:45;;;;;;;1.23;0.60;;;5.60;99.90;;;;;;5037556;28;20526;-75
2022/04/02 01:14:11;;;;;;;1.02;0.50;;;5.60;99.90;;;;;;5050215;28;20036;-75
2022/04/02 01:16:38;;;;;;;0.73;0.40;;;5.50;99.90;;;;;;5030112;28;20487;-75
2022/04/02 01:19:05;;;;;;;1.35;0.50;;;5.50;99.90;;;;;;5031235;28;20112;-75
2022/04/02 01:21:31;;;;;;;1.42;0.60;;;5.60;99.90;;;;;;5049804;28;20036;-74
2022/04/02 01:23:58;;;;;;;0.75;0.40;;;5.60;99.90;;;;;;5053098;28;20475;-75
2022/04/02 01:26:25;;;;;;;0.35;0.32;;;5.60;99.90;;;;;;5055575;28;20051;-75
2022/04/02 01:28:54;;;;;;;2.03;0.50;;;5.60;99.90;;;;;;5042128;28;20040;-75
2022/04/02 01:31:21;;;;;;;0.98;0.35;;;5.70;99.90;;;;;;5036670;28;20441;-75
2022/04/02 01:33:49;;;;;;;0.20;0.20;;;5.70;99.90;;;;;;5055181;28;20057;-75
2022/04/02 01:36:16;;;;;;;1.00;0.55;;;5.70;99.90;;;;;;5054621;28;20083;-75
2022/04/02 01:38:42;;;;;;;1.40;0.57;;;5.60;99.90;;;;;;5034855;28;20026;-74
2022/04/02 01:41:08;;;;;;;5.05;0.77;;;5.70;99.90;;;;;;5035136;28;20097;-75
2022/04/02 01:43:34;;;;;;;1.67;0.82;;;5.70;99.90;;;;;;5054159;28;20044;-74
2022/04/02 01:46:02;;;;;;;1.80;0.60;;;5.60;99.90;;;;;;5054910;28;20028;-74
2022/04/02 01:48:28;;;;;;;1.33;0.88;;;5.70;99.90;;;;;;5053067;28;20040;-75
2022/04/02 01:50:53;;;;;;;1.75;0.93;;;5.70;99.90;;;;;;5054956;28;20039;-75
2022/04/02 01:53:21;;;;;;;3.40;0.95;;;5.70;99.90;;;;;;5052935;28;20465;-75
2022/04/02 01:55:47;;;;;;;2.88;1.30;;;5.80;99.90;;;;;;5044417;28;20072;-74
2022/04/02 01:58:13;;;;;;;4.32;1.90;;;5.70;99.90;;;;;;5034892;28;20134;-75
2022/04/02 02:00:40;;;;;;;3.33;1.60;;;5.70;99.90;;;;;;5036076;28;20058;-75
2022/04/02 02:03:09;;;;;;;2.40;1.20;;;5.80;99.90;;;;;;5048861;28;20509;-75
2022/04/02 02:05:35;;;;;;;2.63;1.40;;;5.80;99.90;;;;;;5046987;28;20491;-74
2022/04/02 02:08:02;;;;;;;2.88;1.25;;;5.90;99.90;;;;;;5034455;28;20421;-75
2022/04/02 02:10:28;;;;;;;4.93;1.67;;;5.90;99.90;;;;;;5039620;28;20043;-75
2022/04/02 02:12:54;;;;;;;6.43;1.80;;;6.00;99.90;;;;;;5052640;28;20403;-74
2022/04/02 02:15:19;;;;;;;6.80;2.85;;;6.00;99.90;;;;;;5049944;28;20029;-75
2022/04/02 02:17:49;;;;;;;7.20;2.53;;;6.00;99.90;;;;;;5034072;28;20544;-74
2022/04/02 02:20:17;;;;;;;2.60;1.25;;;6.00;99.90;;;;;;5035016;28;20025;-75
2022/04/02 02:22:44;;;;;;;3.33;1.50;;;5.90;99.90;;;;;;5045308;28;20057;-75
2022/04/02 02:25:12;;;;;;;3.30;1.67;;;5.80;99.90;;;;;;5052500;28;20032;-75
2022/04/02 02:27:39;;;;;;;3.22;1.50;;;5.90;99.90;;;;;;5034264;28;20480;-75
2022/04/02 02:30:06;;;;;;;4.22;2.00;;;5.80;99.90;;;;;;5034116;28;20041;-74
2022/04/02 02:32:36;;;;;;;4.38;2.08;;;5.70;99.90;;;;;;5043970;28;20037;-74
2022/04/02 02:38:00;;;;;;;4.15;2.53;;;5.70;99.90;;;;;;5033831;28;20048;-74
2022/04/02 02:40:26;;;;;;;5.07;2.35;;;5.70;99.90;;;;;;5033810;28;20034;-75
2022/04/02 02:42:51;;;;;;;4.55;2.60;;;5.60;99.90;;;;;;5045430;28;20037;-75
2022/04/02 02:45:17;;;;;;;4.93;2.88;;;5.50;99.90;;;;;;5053078;28;20061;-75
2022/04/02 02:47:43;;;;;;;9.98;3.78;;;5.60;99.90;;;;;;5033346;28;20106;-75
2022/04/02 02:50:09;;;;;;;7.50;3.67;;;5.60;99.90;;;;;;5035006;28;20079;-75
2022/04/02 02:52:34;;;;;;;8.90;4.28;;;5.60;99.90;;;;;;5042946;28;20111;-75
2022/04/02 02:55:00;;;;;;;5.32;2.58;;;5.70;99.90;;;;;;5034067;28;20025;-75
2022/04/02 02:57:26;;;;;;;4.00;2.03;;;5.70;99.90;;;;;;5051995;28;20426;-75
2022/04/02 02:59:51;;;;;;;6.50;1.60;;;5.50;99.90;;;;;;5053309;28;20099;-75
2022/04/02 03:02:17;;;;;;;4.50;2.35;;;5.50;99.90;;;;;;5040072;28;20106;-74
2022/04/02 03:04:43;;;;;;;5.30;2.65;;;5.60;99.90;;;;;;5029819;28;20086;-75
2022/04/02 03:07:09;;;;;;;6.55;2.30;;;5.70;99.90;;;;;;5029570;28;20527;-75
2022/04/02 03:09:34;;;;;;;5.13;2.33;;;5.80;99.90;;;;;;5046915;28;20029;-74
2022/04/02 03:12:00;;;;;;;6.03;2.75;;;5.70;99.90;;;;;;5034351;28;20432;-76
2022/04/02 03:14:26;;;;;;;3.88;2.33;;;5.80;99.90;;;;;;5047509;28;20027;-75
2022/04/02 03:16:51;;;;;;;4.53;2.83;;;5.80;99.90;;;;;;5031626;28;20034;-75
2022/04/02 03:19:17;;;;;;;5.47;3.13;;;5.80;99.90;;;;;;5025443;28;20030;-75
2022/04/02 03:21:43;;;;;;;4.40;2.58;;;5.80;99.90;;;;;;5035812;28;20040;-75
2022/04/02 03:24:08;;;;;;;5.38;2.67;;;5.80;99.90;;;;;;5027288;28;20366;-75
2022/04/02 03:26:34;;;;;;;6.03;2.97;;;5.80;99.90;;;;;;5040380;28;20032;-75
2022/04/02 03:29:00;;;;;;;6.40;2.88;;;5.70;99.90;;;;;;5047669;28;20651;-74
2022/04/02 03:31:26;;;;;;;5.13;3.20;;;5.70;99.90;;;;;;5034371;28;20069;-75
2022/04/02 03:33:51;;;;;;;4.80;2.80;;;5.70;99.90;;;;;;5043966;28;20048;-75
2022/04/02 03:36:17;;;;;;;7.13;4.07;;;5.70;99.90;;;;;;5035863;28;20037;-75
2022/04/02 03:38:42;;;;;;;6.22;3.78;;;5.70;99.90;;;;;;5027234;28;20072;-75
2022/04/02 03:41:08;;;;;;;6.63;4.13;;;5.70;99.90;;;;;;5035953;28;20071;-75
2022/04/02 03:43:34;;;;;;;5.90;3.65;;;5.60;99.90;;;;;;5032765;28;20507;-75
2022/04/02 03:48:45;;;;;;;8.73;4.35;;;5.60;99.90;;;;;;5033145;28;20091;-74
2022/04/02 03:51:11;;;;;;;6.28;4.13;;;5.60;99.90;;;;;;5025571;28;20041;-75
2022/04/02 03:53:37;;;;;;;7.13;4.78;;;5.60;99.90;;;;;;5040846;28;20036;-74
2022/04/02 03:56:03;;;;;;;7.22;4.53;;;5.70;99.90;;;;;;5039917;28;20040;-75
2022/04/02 03:58:31;;;;;;;7.05;4.65;;;5.70;99.90;;;;;;5025487;28;20033;-75
2022/04/02 04:00:57;;;;;;;8.60;4.85;;;5.70;99.90;;;;;;5024660;28;20034;-75
2022/04/02 04:03:23;;;;;;;7.95;4.90;;;5.70;99.90;;;;;;5036985;28;20029;-75
2022/04/02 04:05:48;;;;;;;8.73;5.38;;;5.70;99.90;;;;;;5037683;28;20033;-74
2022/04/02 04:08:14;;;;;;;7.03;4.00;;;5.60;99.90;;;;;;5023880;28;20037;-75
2022/04/02 04:10:41;;;;;;;8.25;3.20;;;5.50;99.90;;;;;;5026994;28;20047;-74
2022/04/02 04:13:07;;;;;;;6.43;3.35;;;5.50;99.90;;;;;;5033516;28;20474;-74
2022/04/02 04:15:33;;;;;;;8.57;3.80;;;5.50;99.90;;;;;;5025587;28;20072;-74
2022/04/02 04:17:58;;;;;;;7.95;3.95;;;5.50;99.90;;;;;;5043768;28;20100;-74
2022/04/02 04:20:24;;;;;;;5.82;3.45;;;5.50;99.90;;;;;;5043689;28;20094;-75
2022/04/02 04:22:50;;;;;;;9.43;3.22;;;5.40;99.90;;;;;;5032274;28;20029;-74
2022/04/02 04:25:15;;;;;;;6.10;3.00;;;5.30;99.90;;;;;;5043757;28;20029;-76
2022/04/02 04:27:41;;;;;;;7.05;2.72;;;5.30;99.90;;;;;;5025318;28;20061;-76
2022/04/02 04:30:08;;;;;;;4.97;2.70;;;5.20;99.90;;;;;;5023846;28;20029;-75
2022/04/02 04:32:34;;;;;;;5.05;2.30;;;5.40;99.90;;;;;;5030462;28;20117;-76
2022/04/02 04:35:00;;;;;;;6.95;2.60;;;5.30;99.90;;;;;;5023784;28;20538;-75
2022/04/02 04:37:26;;;;;;;6.47;5.10;;;5.20;99.90;;;;;;5025890;28;20033;-75
2022/04/02 04:39:52;;;;;;;4.35;3.28;;;5.20;99.90;;;;;;5023605;28;20533;-74
2022/04/02 04:42:17;;;;;;;5.63;1.95;;;5.20;99.90;;;;;;5033680;28;20030;-75
2022/04/02 04:44:43;;;;;;;5.07;2.65;;;5.00;99.90;;;;;;5025581;28;20137;-76
2022/04/02 04:47:10;;;;;;;4.43;3.42;;;4.90;99.90;;;;;;5043540;28;20033;-76
2022/04/02 04:49:36;;;;;;;2.03;1.02;;;4.90;99.90;;;;;;5042249;28;20119;-75
2022/04/02 04:52:03;;;;;;;4.55;2.17;;;4.70;99.90;;;;;;5027043;28;20510;-75
2022/04/02 04:54:29;;;;;;;2.35;1.10;;;4.60;99.90;;;;;;5042611;28;20025;-76
2022/04/02 04:56:55;;;;;;;1.23;0.70;;;4.70;99.90;;;;;;5042776;28;20033;-75
2022/04/02 04:59:21;;;;;;;2.58;0.93;;;4.70;99.90;;;;;;5042871;28;20471;-75
2022/04/02 05:01:47;;;;;;;2.38;1.50;;;4.60;99.90;;;;;;5026284;28;20481;-76
2022/04/02 05:04:13;;;;;;;3.55;2.00;;;4.70;99.90;;;;;;5043068;28;20048;-75
2022/04/02 05:06:40;;;;;;;3.10;1.85;;;4.60;99.90;;;;;;5026616;28;20493;-75
2022/04/02 05:09:06;;;;;;;1.23;0.80;;;4.60;99.90;;;;;;5022997;28;20040;-76
2022/04/02 05:11:32;;;;;;;2.42;0.90;;;4.60;99.90;;;;;;5035981;28;20032;-75
2022/04/02 05:13:58;;;;;;;3.25;0.90;;;4.50;99.90;;;;;;5023679;28;20083;-75
2022/04/02 05:16:26;;;;;;;4.28;1.10;;;4.50;99.90;;;;;;5024023;28;20056;-76
2022/04/02 05:18:52;;;;;;;2.42;1.27;;;4.50;99.90;;;;;;5023091;28;20030;-76
2022/04/02 05:21:18;;;;;;;2.85;1.05;;;4.60;99.90;;;;;;5024047;28;20038;-75
2022/04/02 05:23:43;;;;;;;2.83;1.25;;;4.50;99.90;;;;;;5038843;28;20037;-75
2022/04/02 05:26:09;;;;;;;2.35;1.17;;;4.30;99.90;;;;;;5031937;28;20029;-77
2022/04/02 05:28:35;;;;;;;4.75;1.50;;;4.20;99.90;;;;;;5023084;28;20104;-76
2022/04/02 05:31:00;;;;;;;5.50;1.58;;;4.30;99.90;;;;;;5023878;28;20087;-76
2022/04/02 05:33:26;;;;;;;4.82;1.90;;;4.30;99.90;;;;;;5036588;28;20082;-75
2022/04/02 05:35:52;;;;;;;5.45;2.22;;;4.30;99.90;;;;;;5040956;28;20502;-75
2022/04/02 05:38:17;;;;;;;6.32;2.88;;;4.30;99.90;;;;;;5042663;28;20414;-77
2022/04/02 05:40:43;;;;;;;6.00;2.00;;;4.30;99.90;;;;;;5041173;28;20041;-76
2022/04/02 05:43:09;;;;;;;3.45;1.70;;;4.30;99.90;;;;;;5031276;28;20033;-76
2022/04/02 05:45:34;;;;;;;6.30;1.75;;;4.30;99.90;;;;;;5029466;28;20072;-76
2022/04/02 05:48:00;;;;;;;4.90;1.98;;;4.30;99.90;;;;;;5042741;28;20102;-75
2022/04/02 05:50:26;;;;;;;4.72;2.00;;;4.30;99.90;;;;;;5039378;28;20021;-76
2022/04/02 05:52:53;;;;;;;5.50;1.95;;;4.20;99.90;;;;;;5040707;28;20040;-78
2022/04/02 05:55:19;;;;;;;5.97;1.95;;;4.20;99.90;;;;;;5038302;28;20036;-76
2022/04/02 05:57:46;;;;;;;4.00;1.63;;;4.20;99.90;;;;;;5023002;28;20032;-75
2022/04/02 06:00:15;;;;;;;2.15;1.13;;;4.00;99.90;;;;;;5026340;28;20298;-75
2022/04/02 06:02:41;;;;;;;3.03;1.45;;;3.90;99.90;;;;;;5036104;28;20033;-76
2022/04/02 06:05:08;;;;;;;1.45;0.65;;;3.90;99.90;;;;;;5044596;28;20039;-75
2022/04/02 06:07:34;;;;;;;1.65;0.77;;;3.80;99.90;;;;;;5026111;28;20331;-75
2022/04/02 06:10:02;;;;;;;1.92;1.00;;;3.80;99.90;;;;;;5029233;28;20365;-75
2022/04/02 06:12:29;;;;;;;3.97;1.05;;;3.60;99.90;;;;;;5038385;28;20078;-76
2022/04/02 06:14:56;;;;;;;2.95;0.85;;;3.70;99.90;;;;;;5049466;28;20522;-76
2022/04/02 06:17:22;;;;;;;3.10;0.82;;;3.80;99.90;;;;;;5030066;28;20033;-75
2022/04/02 06:19:47;;;;;;;3.45;1.00;;;3.50;99.90;;;;;;5028825;28;20087;-75
2022/04/02 06:22:13;;;;;;;1.70;0.80;;;3.70;99.90;;;;;;5034492;28;20049;-76
2022/04/02 06:24:38;;;;;;;1.08;0.63;;;3.90;99.90;;;;;;5046446;28;20021;-75
2022/04/02 06:27:04;;;;;;;1.27;0.73;;;4.00;99.90;;;;;;5030755;28;20450;-75
2022/04/02 06:29:30;;;;;;;1.52;0.90;;;3.80;99.90;;;;;;5025951;28;20068;-75
2022/04/02 06:31:56;;;;;;;3.22;0.90;;;3.90;99.90;;;;;;5036083;28;20037;-75
2022/04/02 06:34:22;;;;;;;1.10;0.50;;;4.00;99.90;;;;;;5028835;28;20556;-76
2022/04/02 06:36:48;;;;;;;1.65;0.70;;;4.10;99.90;;;;;;5044354;28;20037;-75
2022/04/02 06:39:13;;;;;;;1.77;0.77;;;4.10;99.90;;;;;;5029775;28;20038;-75
2022/04/02 06:41:40;;;;;;;1.80;1.13;;;4.30;99.90;;;;;;5029757;28;20033;-76
2022/04/02 06:44:08;;;;;;;1.75;0.93;;;4.20;99.90;;;;;;5029522;28;20052;-76
2022/04/02 06:46:39;;;;;;;1.13;0.60;;;4.10;99.90;;;;;;5040314;28;20029;-75
2022/04/02 06:49:09;;;;;;;2.00;0.77;;;4.10;99.90;;;;;;5048220;28;20099;-75
2022/04/02 06:51:36;;;;;;;4.10;0.95;;;4.10;99.90;;;;;;5045964;28;20033;-75
2022/04/02 06:54:03;;;;;;;2.47;0.82;;;4.20;99.90;;;;;;5045912;28;20029;-75
2022/04/02 06:56:29;;;;;;;1.55;0.80;;;4.20;99.90;;;;;;5037679;28;20044;-75
2022/04/02 06:58:55;;;;;;;1.25;0.80;;;4.10;99.90;;;;;;5028861;28;20432;-75
2022/04/02 07:01:20;;;;;;;4.38;0.85;;;4.10;99.90;;;;;;5030229;28;20037;-75
2022/04/02 07:03:46;;;;;;;2.25;1.10;;;4.10;99.90;;;;;;5028631;28;20032;-75
2022/04/02 07:06:12;;;;;;;2.40;0.90;;;4.20;99.90;;;;;;5029220;28;20074;-74
2022/04/02 07:08:38;;;;;;;0.73;0.55;;;4.10;99.90;;;;;;5028248;28;20119;-75
2022/04/02 07:11:05;;;;;;;0.95;0.60;;;4.20;99.90;;;;;;5031298;28;20026;-74
2022/04/02 07:13:31;;;;;;;1.65;0.80;;;4.00;99.90;;;;;;5046593;28;20486;-74
2022/04/02 07:15:57;;;;;;;1.33;0.63;;;4.10;99.90;;;;;;5032376;28;20100;-75
2022/04/02 07:18:24;;;;;;;1.27;0.70;;;4.20;99.90;;;;;;5043249;28;20028;-75
2022/04/02 07:20:51;;;;;;;1.27;0.60;;;4.30;99.90;;;;;;5047848;28;20029;-75
2022/04/02 07:23:18;;;;;;;1.35;0.70;;;4.30;99.90;;;;;;5046346;28;20086;-75
2022/04/02 07:25:44;;;;;;;1.05;0.60;;;4.50;99.90;;;;;;5047767;28;20032;-74
2022/04/02 07:28:10;;;;;;;2.25;0.98;;;4.60;99.90;;;;;;5047792;28;20104;-75
2022/04/02 07:30:37;;;;;;;1.48;0.90;;;4.70;99.90;;;;;;5047547;28;20215;-75
2022/04/02 07:33:04;;;;;;;1.92;0.90;;;4.80;99.90;;;;;;5047684;28;20648;-75
2022/04/02 07:35:48;;;;;;;1.40;0.80;;;4.80;99.90;;;;;;5047579;28;20278;-76
2022/04/02 07:38:37;;;;;;;3.35;1.17;;;4.80;99.90;;;;;;5047236;28;20518;-74
2022/04/02 07:41:13;;;;;;;1.88;0.70;;;4.70;99.90;;;;;;5043852;28;20116;-75
2022/04/02 07:44:03;;;;;;;2.00;0.90;;;4.60;99.90;;;;;;5047026;28;20100;-75
2022/04/02 07:46:32;;;;;;;3.95;1.50;;;4.70;99.90;;;;;;5047031;28;20032;-75
2022/04/02 07:48:58;;;;;;;2.35;1.23;;;4.80;99.90;;;;;;5047329;28;20113;-74
2022/04/02 07:51:28;;;;;;;5.22;1.55;;;4.80;99.90;;;;;;5047350;28;20490;-75
2022/04/02 07:53:56;;;;;;;2.47;1.15;;;5.00;99.90;;;;;;5047387;28;20100;-75
2022/04/02 07:56:28;;;;;;;3.75;1.90;;;5.00;99.90;;;;;;5044718;28;20378;-74
2022/04/02 07:59:00;;;;;;;3.13;1.70;;;5.00;99.90;;;;;;5025724;28;20307;-74
2022/04/02 08:01:26;;;;;;;2.90;1.50;;;5.10;99.90;;;;;;5025361;28;20057;-75
2022/04/02 08:03:54;;;;;;;2.17;1.10;;;5.20;99.90;;;;;;5029906;28;20529;-74
2022/04/02 08:06:21;;;;;;;3.95;1.42;;;5.20;99.90;;;;;;5030195;28;20440;-74
2022/04/02 08:08:47;;;;;;;3.95;1.58;;;5.30;99.90;;;;;;5047013;28;20095;-75
2022/04/02 08:11:16;;;;;;;3.03;1.85;;;5.20;99.90;;;;;;5040536;28;20033;-74
2022/04/02 08:13:44;;;;;;;2.63;1.40;;;5.20;99.90;;;;;;5041614;28;20033;-75
2022/04/02 08:16:09;;;;;;;4.63;1.90;;;5.40;99.90;;;;;;5044837;28;20560;-74
2022/04/02 08:18:41;;;;;;;3.63;1.88;;;5.40;99.90;;;;;;5027134;28;20060;-74
2022/04/02 08:21:08;;;;;;;5.10;1.83;;;5.40;99.90;;;;;;5029609;28;20453;-74
2022/04/02 08:23:35;;;;;;;2.63;1.20;;;5.30;99.90;;;;;;5045228;28;20025;-75
2022/04/02 08:26:06;;;;;;;3.42;1.88;;;5.10;99.90;;;;;;5045185;28;20031;-74
2022/04/02 08:28:46;;;;;;;3.00;1.60;;;5.20;99.90;;;;;;5038636;28;20029;-74
2022/04/02 08:31:30;;;;;;;4.35;2.03;;;5.10;99.90;;;;;;5033186;28;20047;-74
2022/04/02 08:34:14;;;;;;;4.63;1.70;;;5.00;99.90;;;;;;5027691;28;20103;-75
2022/04/02 08:36:49;;;;;;;3.50;1.60;;;5.20;99.90;;;;;;5040205;28;20098;-74
2022/04/02 08:39:40;;;;;;;3.83;1.83;;;5.20;99.90;;;;;;5033473;28;20039;-75
2022/04/02 08:42:49;;;;;;;4.22;2.15;;;5.20;99.90;;;;;;5039926;28;20065;-74
2022/04/02 08:45:27;;;;;;;3.47;1.90;;;5.30;99.90;;;;;;5032541;28;20052;-74
2022/04/02 08:48:17;;;;;;;3.13;1.60;;;5.10;99.90;;;;;;5042861;28;20032;-75
2022/04/02 08:51:10;;;;;;;2.53;1.40;;;5.10;99.90;;;;;;5023695;28;20025;-75
2022/04/02 08:53:49;;;;;;;3.47;1.77;;;5.20;99.90;;;;;;5024432;28;20189;-75
2022/04/02 08:56:24;;;;;;;2.83;1.58;;;5.20;99.90;;;;;;5036574;28;20048;-75
2022/04/02 08:59:05;;;;;;;3.30;2.05;;;5.20;99.90;;;;;;5026943;28;20460;-74
2022/04/02 09:01:41;;;;;;;3.42;1.90;;;5.20;99.90;;;;;;5036870;28;20081;-75
2022/04/02 09:04:28;;;;;;;3.20;1.70;;;5.10;99.90;;;;;;5043781;28;20020;-75
2022/04/02 09:07:15;;;;;;;4.22;1.77;;;5.10;99.90;;;;;;5037670;28;20436;-75
2022/04/02 09:10:17;;;;;;;3.15;1.70;;;5.30;99.90;;;;;;5025666;28;20037;-75
2022/04/02 09:13:04;;;;;;;3.65;1.90;;;5.40;99.90;;;;;;5036170;28;20028;-76
2022/04/02 09:16:00;;;;;;;3.80;1.90;;;5.40;99.90;;;;;;5026517;28;20547;-76
2022/04/02 09:18:31;;;;;;;3.53;1.70;;;5.40;99.90;;;;;;5029334;28;20123;-76
2022/04/02 09:21:04;;;;;;;3.35;1.40;;;5.40;99.90;;;;;;5021237;28;20042;-75
2022/04/02 09:23:44;;;;;;;3.85;1.40;;;5.40;99.90;;;;;;5023287;28;20600;-75
2022/04/02 09:26:31;;;;;;;3.20;1.70;;;5.30;99.90;;;;;;5023193;28;20424;-75
2022/04/02 09:29:08;;;;;;;3.60;1.60;;;5.30;99.90;;;;;;5025415;28;20041;-78
2022/04/02 09:32:10;;;;;;;3.35;1.60;;;5.30;99.90;;;;;;5023971;28;20510;-77
2022/04/02 09:34:57;;;;;;;2.72;1.38;;;5.30;99.90;;;;;;5024366;28;20036;-77
2022/04/02 09:38:00;;;;;;;5.57;1.67;;;5.40;99.90;;;;;;5024342;28;20041;-76
2022/04/02 09:40:40;;;;;;;2.05;1.20;;;5.50;99.90;;;;;;5023850;28;20088;-77
2022/04/02 09:43:18;;;;;;;3.25;1.23;;;5.40;99.90;;;;;;5025161;28;20048;-78
2022/04/02 09:46:05;;;;;;;1.60;0.70;;;5.50;99.90;;;;;;5028348;28;20230;-77
2022/04/02 09:48:46;;;;;;;1.50;0.80;;;5.50;99.90;;;;;;5028027;28;20025;-78
2022/04/02 09:51:16;;;;;;;3.65;1.65;;;5.60;99.90;;;;;;5028173;28;20026;-78
2022/04/02 09:54:06;;;;;;;6.15;3.75;;;5.70;99.90;;;;;;5028493;28;20036;-77
2022/04/02 09:56:46;;;;;;;6.07;2.08;;;5.90;99.90;;;;;;5027321;28;20392;-77
2022/04/02 09:59:22;;;;;;;3.58;1.58;;;5.80;99.90;;;;;;5027757;28;20419;-77
2022/04/02 10:01:58;;;;;;;2.03;1.00;;;5.80;99.90;;;;;;5027648;28;20479;-78
2022/04/02 10:04:38;;;;;;;2.25;0.90;;;5.60;99.90;;;;;;5027968;28;20032;-78
2022/04/02 10:07:07;;;;;;;1.73;0.82;;;5.60;99.90;;;;;;5027029;28;20166;-77
2022/04/02 10:09:36;;;;;;;3.05;1.75;;;5.80;99.90;;;;;;5027916;28;20056;-77
2022/04/02 10:12:03;;;;;;;5.13;2.33;;;6.00;99.90;;;;;;5027865;28;20018;-77
2022/04/02 10:14:30;;;;;;;4.03;2.25;;;6.00;99.90;;;;;;5027605;28;20026;-77
2022/04/02 10:17:06;;;;;;;6.47;2.25;;;6.00;99.90;;;;;;5027234;28;20025;-78
2022/04/02 10:19:38;;;;;;;2.90;1.80;;;6.00;99.90;;;;;;5027419;28;20034;-77
2022/04/02 10:22:09;;;;;;;3.40;1.65;;;6.00;99.90;;;;;;5027211;28;20033;-77
2022/04/02 10:24:40;;;;;;;3.72;1.90;;;6.10;99.90;;;;;;5027629;28;20041;-77
2022/04/02 10:27:10;;;;;;;3.55;1.73;;;6.20;99.90;;;;;;5027507;28;20083;-78
2022/04/02 10:30:07;;;;;;;5.53;1.95;;;6.30;99.90;;;;;;5027332;28;20025;-77
2022/04/02 10:32:51;;;;;;;5.75;1.55;;;6.30;99.90;;;;;;5027258;28;20057;-78
2022/04/02 10:35:20;;;;;;;4.75;1.48;;;6.30;99.90;;;;;;5027306;28;20022;-77
2022/04/02 10:38:09;;;;;;;3.78;1.30;;;6.40;99.90;;;;;;5027142;28;20026;-77
2022/04/02 10:40:51;;;;;;;3.60;1.63;;;6.40;99.90;;;;;;5026866;28;20057;-77
2022/04/02 10:43:28;;;;;;;4.45;1.20;;;6.30;99.90;;;;;;5026904;28;20044;-77
2022/04/02 10:45:56;;;;;;;4.53;1.85;;;6.30;99.90;;;;;;5026818;28;20038;-77
2022/04/02 10:48:36;;;;;;;3.83;2.10;;;6.40;99.90;;;;;;5027632;28;20029;-77
2022/04/02 10:51:02;;;;;;;8.52;2.17;;;6.50;99.90;;;;;;5026446;28;20025;-77
2022/04/02 10:53:31;;;;;;;10.27;2.28;;;6.70;99.90;;;;;;5024917;28;20517;-77
2022/04/02 10:55:59;;;;;;;4.78;1.48;;;6.70;99.90;;;;;;5026838;28;20036;-77
2022/04/02 10:58:25;;;;;;;6.55;1.50;;;6.50;99.90;;;;;;5025907;28;20519;-78
2022/04/02 11:00:56;;;;;;;5.05;2.47;;;6.70;99.90;;;;;;5025672;28;20037;-76
2022/04/02 11:03:42;;;;;;;4.63;3.05;;;6.80;99.90;;;;;;5025984;28;20028;-78
2022/04/02 11:06:09;;;;;;;4.82;1.70;;;6.90;99.90;;;;;;5026761;28;20947;-77
2022/04/02 11:08:34;;;;;;;3.35;1.50;;;6.80;99.90;;;;;;5026556;28;20391;-77
2022/04/02 11:11:27;;;;;;;6.43;1.38;;;6.50;99.90;;;;;;5026598;28;20032;-77
2022/04/02 11:14:02;;;;;;;6.53;1.85;;;6.40;99.90;;;;;;5026219;28;20037;-77
2022/04/02 11:16:40;;;;;;;5.75;1.60;;;6.70;99.90;;;;;;5026072;28;20049;-77
2022/04/02 11:22:03;;;;;;;3.57;1.40;;;6.50;99.90;;;;;;5026159;28;20107;-77
2022/04/02 11:24:46;;;;;;;4.57;1.60;;;6.60;99.90;;;;;;5025978;28;20029;-77
2022/04/02 11:27:18;;;;;;;5.63;2.38;;;6.80;99.90;;;;;;5024285;28;20027;-78
2022/04/02 11:29:51;;;;;;;4.40;2.45;;;6.60;99.90;;;;;;5025947;28;20029;-77
2022/04/02 11:32:27;;;;;;;4.63;2.38;;;6.40;99.90;;;;;;5025351;28;20056;-78
2022/04/02 11:34:53;;;;;;;5.13;2.20;;;6.40;99.90;;;;;;5025783;28;20112;-77
2022/04/02 11:37:33;;;;;;;10.52;2.53;;;6.40;99.90;;;;;;5025702;28;20108;-77
2022/04/02 11:40:04;;;;;;;4.90;2.70;;;6.40;99.90;;;;;;5026079;28;20331;-77
2022/04/02 11:42:34;;;;;;;8.15;3.20;;;6.30;99.90;;;;;;5025685;28;20063;-77
2022/04/02 11:45:05;;;;;;;4.10;2.40;;;6.20;99.90;;;;;;5025581;28;20052;-77
2022/04/02 11:47:35;;;;;;;6.68;2.45;;;6.10;99.90;;;;;;5025546;28;20102;-77
2022/04/02 11:50:08;;;;;;;4.63;2.25;;;6.00;99.90;;;;;;5025634;28;20503;-78
2022/04/02 11:52:58;;;;;;;4.77;2.60;;;6.10;99.90;;;;;;5025603;28;20527;-77
2022/04/02 11:55:25;;;;;;;4.18;2.50;;;6.20;99.90;;;;;;5025269;28;20087;-78
2022/04/02 11:58:10;;;;;;;3.83;2.08;;;6.30;99.90;;;;;;5025337;28;20021;-77
2022/04/02 12:00:41;;;;;;;5.15;2.28;;;6.20;99.90;;;;;;5025050;28;20533;-76
2022/04/02 12:03:24;;;;;;;6.20;2.22;;;6.20;99.90;;;;;;5025212;28;20025;-77
2022/04/02 12:05:51;;;;;;;4.53;2.22;;;6.30;99.90;;;;;;5024180;28;20055;-77
2022/04/02 12:08:31;;;;;;;4.30;2.20;;;6.40;99.90;;;;;;5025418;28;20037;-77
2022/04/02 12:10:58;;;;;;;5.38;2.92;;;6.60;99.90;;;;;;5023823;28;20360;-77
2022/04/02 12:13:24;;;;;;;6.45;2.25;;;6.60;99.90;;;;;;5024693;28;20053;-78
2022/04/02 12:16:04;;;;;;;4.97;1.95;;;6.50;99.90;;;;;;5024959;28;20032;-77
2022/04/02 12:18:31;;;;;;;4.22;1.67;;;6.50;99.90;;;;;;5025217;28;20087;-77
2022/04/02 12:21:07;;;;;;;3.40;1.70;;;6.60;99.90;;;;;;5024152;28;20064;-77
2022/04/02 12:23:33;;;;;;;5.03;1.70;;;6.70;99.90;;;;;;5025200;28;20095;-77
2022/04/02 12:26:00;;;;;;;6.97;1.80;;;6.50;99.90;;;;;;5024816;28;20033;-77
2022/04/02 12:28:27;;;;;;;5.25;1.77;;;6.40;99.90;;;;;;5025126;28;20128;-77
2022/04/02 12:31:01;;;;;;;6.07;1.50;;;6.60;99.90;;;;;;5025378;28;20021;-78
2022/04/02 12:33:28;;;;;;;3.78;1.38;;;6.60;99.90;;;;;;5025315;28;20548;-77
2022/04/02 12:35:57;;;;;;;4.20;2.20;;;6.60;99.90;;;;;;5025265;28;20091;-77
2022/04/02 12:38:30;;;;;;;4.78;1.48;;;6.60;99.90;;;;;;5025155;28;20037;-77
2022/04/02 12:40:57;;;;;;;4.30;1.20;;;6.60;99.90;;;;;;5025120;28;20025;-77
2022/04/02 12:43:29;;;;;;;4.30;1.77;;;6.70;99.90;;;;;;5025179;28;20051;-77
2022/04/02 12:45:55;;;;;;;6.15;2.50;;;6.70;99.90;;;;;;5024980;28;20716;-77
2022/04/02 12:48:24;;;;;;;3.15;1.50;;;6.70;99.90;;;;;;5026542;28;20029;-77
2022/04/02 12:50:59;;;;;;;8.27;1.77;;;6.50;99.90;;;;;;5027765;28;20104;-77
2022/04/02 12:53:34;;;;;;;5.43;1.30;;;6.70;99.90;;;;;;5027737;28;20061;-77
2022/04/02 12:56:02;;;;;;;4.70;1.60;;;6.60;99.90;;;;;;5027660;28;20535;-76
2022/04/02 12:58:40;;;;;;;4.72;1.30;;;6.80;99.90;;;;;;5027906;28;20128;-77
2022/04/02 13:01:12;;;;;;;4.25;1.38;;;6.90;99.90;;;;;;5027261;28;20050;-77
2022/04/02 13:04:05;;;;;;;3.15;1.50;;;6.90;99.90;;;;;;5027454;28;20033;-77
2022/04/02 13:06:34;;;;;;;4.63;1.80;;;7.10;99.90;;;;;;5027600;28;20022;-77
2022/04/02 13:09:04;;;;;;;3.90;1.50;;;7.10;99.90;;;;;;5027437;28;20187;-78
2022/04/02 13:11:32;;;;;;;3.60;1.38;;;7.20;99.90;;;;;;5027304;28;20100;-77
2022/04/02 13:14:04;;;;;;;3.53;1.20;;;7.20;99.90;;;;;;5027002;28;20415;-77
2022/04/02 13:16:39;;;;;;;5.53;1.60;;;7.00;99.90;;;;;;5027117;28;20486;-77
2022/04/02 13:22:02;;;;;;;4.15;2.03;;;7.30;99.90;;;;;;5031469;28;20071;-77
2022/04/02 13:24:44;;;;;;;6.18;1.70;;;7.10;99.90;;;;;;5031210;28;20041;-77